Time;durP1;ratioP1;P1;durP2;ratioP2;P2;SDS_P1;SDS_P2;PMS_P1;PMS_P2;Temp;Humidity;BMP_temperature;BMP_pressure;BME280_temperature;BME280_humidity;BME280_pressure;Samples;Min_cycle;Max_cycle;Signal;HPM_P1;HPM_P2
2022/06/25 00:01:43;;;;;;;4.72;4.30;;;;;;;17.98;98.17;100729.94;5012182;28;20241;-47
2022/06/25 00:05:27;;;;;;;4.70;4.30;;;;;;;18.09;97.79;100727.34;5011139;28;20720;-45
2022/06/25 00:06:54;;;;;;;5.15;4.13;;;;;;;18.10;97.32;100726.38;5011686;28;20212;-49
2022/06/25 00:09:20;;;;;;;4.88;4.45;;;;;;;18.02;96.64;100726.06;5011391;28;20445;-48
2022/06/25 00:14:29;;;;;;;5.18;4.75;;;;;;;18.02;96.59;100717.91;5011091;28;20511;-49
2022/06/25 00:16:54;;;;;;;5.35;4.90;;;;;;;18.01;96.91;100718.03;5011613;28;20223;-52
2022/06/25 00:19:20;;;;;;;5.80;5.20;;;;;;;17.93;97.24;100721.28;5011755;28;20188;-49
2022/06/25 00:21:45;;;;;;;5.90;4.90;;;;;;;17.81;97.44;100728.41;5011251;28;20227;-47
2022/06/25 00:24:11;;;;;;;6.95;5.85;;;;;;;17.77;97.59;100726.00;5011173;28;20176;-52
2022/06/25 00:26:37;;;;;;;6.07;5.47;;;;;;;17.81;98.06;100731.09;5011178;28;20272;-52
2022/06/25 00:29:03;;;;;;;5.47;5.03;;;;;;;17.88;98.10;100727.00;5011156;28;20307;-47
2022/06/25 00:31:29;;;;;;;6.95;6.25;;;;;;;17.73;98.12;100733.47;5010217;28;20551;-47
2022/06/25 00:33:54;;;;;;;9.77;6.18;;;;;;;17.79;98.46;100733.06;5010744;28;20172;-49
2022/06/25 00:36:20;;;;;;;7.05;5.82;;;;;;;17.53;98.50;100736.72;5009705;28;20200;-47
2022/06/25 00:38:45;;;;;;;6.03;5.45;;;;;;;17.44;99.00;100749.91;5010530;28;20573;-46
2022/06/25 00:41:14;;;;;;;6.30;4.90;;;;;;;17.56;99.27;100736.47;5011052;28;20211;-46
2022/06/25 00:43:40;;;;;;;6.57;5.97;;;;;;;17.57;98.99;100741.81;5010431;28;20267;-47
2022/06/25 00:46:06;;;;;;;6.43;5.95;;;;;;;17.44;99.82;100743.63;5010786;28;20695;-47
2022/06/25 00:48:32;;;;;;;6.03;5.15;;;;;;;17.47;100.00;100752.41;5010461;28;20215;-49
2022/06/25 00:50:58;;;;;;;5.43;4.80;;;;;;;17.50;100.00;100741.38;5009809;28;20177;-49
2022/06/25 00:53:33;;;;;;;6.53;5.70;;;;;;;17.55;99.55;100749.16;5010281;28;20176;-48
2022/06/25 00:55:59;;;;;;;5.45;4.93;;;;;;;17.59;99.17;100752.53;5009454;28;20262;-47
2022/06/25 00:58:39;;;;;;;5.60;5.10;;;;;;;17.60;98.71;100749.75;5009176;28;20226;-49
2022/06/25 01:01:08;;;;;;;7.63;5.63;;;;;;;17.54;98.79;100762.84;5010831;28;20176;-51
2022/06/25 01:03:34;;;;;;;6.22;5.63;;;;;;;17.52;98.69;100767.50;5010167;28;20188;-49
2022/06/25 01:06:00;;;;;;;7.38;6.68;;;;;;;17.25;99.35;100762.94;5009407;28;20204;-48
2022/06/25 01:08:25;;;;;;;9.05;6.72;;;;;;;17.28;100.00;100763.63;5010529;28;20258;-49
2022/06/25 01:10:51;;;;;;;7.13;6.40;;;;;;;17.29;100.00;100765.38;5010537;28;20208;-47
2022/06/25 01:13:21;;;;;;;5.93;5.38;;;;;;;17.38;100.00;100765.72;5008544;28;20165;-48
2022/06/25 01:15:48;;;;;;;6.45;5.85;;;;;;;17.42;100.00;100772.66;5025014;28;20200;-47
2022/06/25 01:18:14;;;;;;;6.93;6.00;;;;;;;17.47;100.00;100765.97;5025686;28;20186;-46
2022/06/25 01:20:42;;;;;;;6.88;6.18;;;;;;;17.44;100.00;100766.16;5009121;28;20176;-49
2022/06/25 01:23:09;;;;;;;6.47;5.85;;;;;;;17.42;100.00;100773.50;5025104;28;20544;-48
2022/06/25 01:25:36;;;;;;;6.25;5.68;;;;;;;17.51;100.00;100777.44;5025101;28;20176;-49
2022/06/25 01:28:03;;;;;;;6.30;5.20;;;;;;;17.57;100.00;100778.88;5009924;28;20680;-48
2022/06/25 01:30:29;;;;;;;7.15;6.50;;;;;;;17.59;99.82;100777.78;5010230;28;20647;-47
2022/06/25 01:32:55;;;;;;;10.52;8.90;;;;;;;17.48;99.61;100785.78;5009602;28;20255;-48
2022/06/25 01:35:21;;;;;;;9.63;8.63;;;;;;;17.49;100.00;100776.69;5009925;28;20581;-47
2022/06/25 01:37:47;;;;;;;9.90;8.90;;;;;;;17.47;100.00;100782.22;5025536;28;20613;-48
2022/06/25 01:40:13;;;;;;;8.98;8.07;;;;;;;17.47;100.00;100794.88;5009901;28;20210;-49
2022/06/25 01:45:22;;;;;;;8.48;7.68;;;;;;;17.13;100.00;100796.28;5009792;28;20209;-48
2022/06/25 01:47:48;;;;;;;7.53;6.63;;;;;;;16.93;100.00;100789.47;5010141;28;20327;-48
2022/06/25 01:50:14;;;;;;;7.55;5.70;;;;;;;17.14;100.00;100800.72;5002627;28;20560;-47
2022/06/25 01:52:42;;;;;;;6.90;6.20;;;;;;;17.23;100.00;100802.81;5001564;28;20272;-47
2022/06/25 01:55:09;;;;;;;10.60;8.63;;;;;;;17.05;100.00;100804.91;5006830;28;20172;-47
2022/06/25 01:57:37;;;;;;;8.13;7.32;;;;;;;17.08;100.00;100808.28;4992252;28;20570;-50
2022/06/25 02:00:05;;;;;;;11.13;10.13;;;;;;;17.05;100.00;100805.78;5008493;28;20670;-48
2022/06/25 02:02:41;;;;;;;8.98;8.18;;;;;;;17.09;100.00;100812.72;5009342;28;20192;-47
2022/06/25 02:05:08;;;;;;;8.63;7.70;;;;;;;17.11;100.00;100811.75;5008209;28;20215;-49
2022/06/25 02:07:34;;;;;;;7.80;7.00;;;;;;;17.23;100.00;100809.09;5009669;28;20238;-49
2022/06/25 02:10:00;;;;;;;9.25;8.02;;;;;;;17.22;100.00;100818.19;5009618;28;20188;-48
2022/06/25 02:12:26;;;;;;;7.47;6.88;;;;;;;17.29;100.00;100818.66;5008178;28;20524;-48
2022/06/25 02:14:51;;;;;;;10.90;9.85;;;;;;;17.19;100.00;100817.53;5008432;28;20196;-47
2022/06/25 02:17:17;;;;;;;12.88;11.68;;;;;;;17.12;100.00;100822.50;5008131;28;20251;-48
2022/06/25 02:19:43;;;;;;;16.80;15.20;;;;;;;17.15;100.00;100829.53;5009319;28;20228;-50
2022/06/25 02:22:14;;;;;;;28.38;25.77;;;;;;;17.27;100.00;100826.91;5009381;28;20204;-47
2022/06/25 02:24:41;;;;;;;19.85;18.00;;;;;;;17.15;100.00;100821.41;5007510;28;20195;-49
2022/06/25 02:27:09;;;;;;;23.50;21.20;;;;;;;17.25;100.00;100823.41;5009163;28;20667;-49
2022/06/25 02:29:35;;;;;;;23.90;21.63;;;;;;;17.34;100.00;100821.03;5009483;28;20196;-49
2022/06/25 02:32:02;;;;;;;26.73;24.27;;;;;;;17.23;100.00;100819.03;5009333;28;20592;-48
2022/06/25 02:34:28;;;;;;;29.85;27.08;;;;;;;17.30;100.00;100821.25;5008538;28;20636;-47
2022/06/25 02:36:54;;;;;;;30.48;27.60;;;;;;;17.32;100.00;100831.09;5007284;28;20203;-48
2022/06/25 02:39:21;;;;;;;33.38;30.27;;;;;;;17.22;100.00;100831.72;5008045;28;20185;-47
2022/06/25 02:41:47;;;;;;;33.10;30.00;;;;;;;17.09;100.00;100833.50;5007190;28;20223;-48
2022/06/25 02:44:13;;;;;;;30.60;27.77;;;;;;;17.19;100.00;100831.94;5007194;28;20177;-48
2022/06/25 02:46:53;;;;;;;28.08;25.67;;;;;;;17.23;100.00;100825.34;5007395;28;20565;-47
2022/06/25 02:49:23;;;;;;;29.20;26.17;;;;;;;17.23;100.00;100817.22;5007144;28;20224;-49
2022/06/25 02:51:48;;;;;;;32.83;29.83;;;;;;;17.11;100.00;100828.00;5007940;28;20231;-49
2022/06/25 02:54:14;;;;;;;29.38;26.65;;;;;;;17.07;100.00;100840.84;5007253;28;20204;-48
2022/06/25 02:59:26;;;;;;;27.13;24.60;;;;;;;16.97;100.00;100848.72;5007373;28;20161;-49
2022/06/25 03:01:55;;;;;;;31.10;28.25;;;;;;;16.98;100.00;100842.31;5008101;28;20169;-51
2022/06/25 03:04:25;;;;;;;30.40;27.52;;;;;;;16.93;100.00;100838.19;5011117;28;20165;-47
2022/06/25 03:06:53;;;;;;;26.05;23.63;;;;;;;17.03;100.00;100839.31;5027625;28;20393;-49
2022/06/25 03:09:20;;;;;;;32.10;29.20;;;;;;;16.95;100.00;100836.25;5012430;28;20247;-49
2022/06/25 03:11:46;;;;;;;29.08;26.35;;;;;;;16.96;100.00;100832.56;5010747;28;20185;-52
2022/06/25 03:14:11;;;;;;;28.60;25.90;;;;;;;17.06;100.00;100825.59;5010761;28;20201;-50
2022/06/25 03:16:37;;;;;;;29.90;26.88;;;;;;;16.95;100.00;100831.72;5012784;28;20247;-49
2022/06/25 03:19:06;;;;;;;27.65;25.17;;;;;;;16.94;100.00;100834.50;5011133;28;20652;-48
2022/06/25 03:21:59;;;;;;;25.80;23.27;;;;;;;17.06;100.00;100841.84;5011448;28;20226;-48
2022/06/25 03:24:25;;;;;;;27.70;25.00;;;;;;;17.03;100.00;100837.50;5010068;28;20173;-50
2022/06/25 03:26:50;;;;;;;24.95;22.80;;;;;;;17.02;100.00;100843.88;5012564;28;20267;-50
2022/06/25 03:29:16;;;;;;;27.45;24.75;;;;;;;17.11;100.00;100836.97;5011344;28;20193;-51
2022/06/25 03:31:42;;;;;;;27.58;24.80;;;;;;;17.00;100.00;100834.13;5010922;28;20248;-51
2022/06/25 03:34:28;;;;;;;28.33;25.52;;;;;;;17.04;100.00;100828.41;5007455;28;20188;-52
2022/06/25 03:36:54;;;;;;;23.90;21.70;;;;;;;17.15;100.00;100826.84;5010520;28;20240;-50
2022/06/25 03:39:21;;;;;;;27.05;24.58;;;;;;;17.11;100.00;100830.72;5011013;28;20179;-49
2022/06/25 03:41:47;;;;;;;25.80;23.33;;;;;;;17.18;100.00;100829.31;5010890;28;20263;-49
2022/06/25 03:44:30;;;;;;;26.55;23.83;;;;;;;17.19;100.00;100834.66;5011640;28;20210;-47
2022/06/25 03:47:05;;;;;;;26.70;24.17;;;;;;;17.22;100.00;100833.56;5010909;28;20211;-47
2022/06/25 03:49:33;;;;;;;26.80;24.30;;;;;;;17.16;100.00;100832.13;5000563;28;20220;-50
2022/06/25 03:52:01;;;;;;;26.67;23.98;;;;;;;17.17;100.00;100836.59;5010254;28;20192;-48
2022/06/25 03:54:27;;;;;;;23.33;21.25;;;;;;;17.27;100.00;100842.25;5009846;28;20204;-48
2022/06/25 03:56:53;;;;;;;23.83;21.55;;;;;;;17.27;100.00;100842.25;5011857;28;20283;-48
2022/06/25 03:59:22;;;;;;;22.33;20.13;;;;;;;17.22;100.00;100839.84;5010647;28;20176;-47
2022/06/25 04:01:53;;;;;;;18.77;17.02;;;;;;;17.40;100.00;100835.03;4998660;28;20185;-49
2022/06/25 04:04:19;;;;;;;23.55;21.38;;;;;;;17.36;100.00;100843.47;5004156;28;20176;-51
2022/06/25 04:06:45;;;;;;;23.17;21.08;;;;;;;17.37;100.00;100847.94;5009945;28;20193;-47
2022/06/25 04:09:11;;;;;;;23.23;21.02;;;;;;;17.22;100.00;100847.97;5010130;28;20247;-47
2022/06/25 04:11:37;;;;;;;23.33;20.85;;;;;;;17.30;100.00;100850.19;5010065;28;20272;-46
2022/06/25 04:14:03;;;;;;;19.83;18.13;;;;;;;17.43;100.00;100839.41;5009788;28;20275;-45
2022/06/25 04:16:30;;;;;;;21.58;19.67;;;;;;;17.21;100.00;100845.38;5009826;28;20550;-47
2022/06/25 04:19:03;;;;;;;23.10;21.00;;;;;;;17.05;100.00;100848.22;5010175;28;20660;-46
2022/06/25 04:21:32;;;;;;;20.83;19.02;;;;;;;17.02;100.00;100846.56;5010228;28;20188;-48
2022/06/25 04:23:58;;;;;;;18.00;16.25;;;;;;;17.18;100.00;100856.41;5009612;28;20184;-43
2022/06/25 04:26:27;;;;;;;19.02;17.30;;;;;;;17.14;100.00;100873.81;5010945;28;20571;-44
2022/06/25 04:29:04;;;;;;;16.98;15.48;;;;;;;17.09;100.00;100876.81;5008730;28;20201;-46
2022/06/25 04:31:53;;;;;;;16.65;15.15;;;;;;;17.12;100.00;100892.00;5010832;28;20211;-45
2022/06/25 04:34:54;;;;;;;15.50;14.13;;;;;;;17.20;100.00;100898.66;5009591;28;20187;-45
2022/06/25 04:37:20;;;;;;;12.52;11.45;;;;;;;17.33;100.00;100905.97;5009427;28;20284;-45
2022/06/25 04:39:46;;;;;;;14.98;13.57;;;;;;;17.37;100.00;100902.97;5009685;28;20275;-47
2022/06/25 04:42:11;;;;;;;12.48;11.32;;;;;;;17.45;100.00;100897.94;5010147;28;20199;-46
2022/06/25 04:44:37;;;;;;;14.88;13.68;;;;;;;17.49;100.00;100888.63;5009180;28;20177;-46
2022/06/25 04:47:03;;;;;;;14.05;12.75;;;;;;;17.52;100.00;100901.09;5010154;28;20207;-46
2022/06/25 04:49:41;;;;;;;15.75;14.27;;;;;;;17.48;100.00;100886.00;5028447;28;20730;-46
2022/06/25 04:52:08;;;;;;;15.50;14.05;;;;;;;17.56;100.00;100885.50;5030263;28;20168;-45
2022/06/25 04:54:34;;;;;;;13.75;12.65;;;;;;;17.60;100.00;100882.50;5029895;28;20176;-45
2022/06/25 04:57:10;;;;;;;13.98;12.73;;;;;;;17.65;100.00;100884.91;5029193;28;20199;-49
2022/06/25 04:59:51;;;;;;;13.15;11.88;;;;;;;17.75;100.00;100891.41;5029355;28;20193;-46
2022/06/25 05:02:26;;;;;;;16.05;14.43;;;;;;;17.47;100.00;100882.44;5028429;28;20192;-45
2022/06/25 05:04:55;;;;;;;15.70;14.15;;;;;;;17.47;100.00;100886.97;5028558;28;20654;-45
2022/06/25 05:07:21;;;;;;;14.38;13.07;;;;;;;17.61;100.00;100899.63;5028739;28;20244;-45
2022/06/25 05:09:47;;;;;;;12.60;11.60;;;;;;;17.86;100.00;100886.19;5028956;28;20226;-46
2022/06/25 05:13:11;;;;;;;10.98;10.00;;;;;;;18.09;100.00;100892.75;5029006;28;20187;-46
2022/06/25 05:15:02;;;;;;;10.82;9.93;;;;;;;18.35;100.00;100900.91;5027930;28;20291;-45
2022/06/25 05:17:28;;;;;;;11.43;10.52;;;;;;;18.36;100.00;100901.78;5029028;28;20218;-45
2022/06/25 05:19:55;;;;;;;10.10;9.15;;;;;;;18.58;100.00;100910.16;5028619;28;20682;-45
2022/06/25 05:22:21;;;;;;;11.30;10.38;;;;;;;18.62;99.52;100910.81;5028812;28;20172;-45
2022/06/25 05:24:46;;;;;;;11.88;10.80;;;;;;;18.60;98.62;100913.63;5029845;28;20179;-45
2022/06/25 05:27:12;;;;;;;10.95;9.80;;;;;;;18.76;98.33;100921.56;5028417;28;20192;-44
2022/06/25 05:29:37;;;;;;;10.13;9.23;;;;;;;18.89;97.76;100927.00;5028528;28;20172;-44
2022/06/25 05:32:04;;;;;;;11.00;9.90;;;;;;;18.84;97.27;100927.31;5030097;28;20204;-44
2022/06/25 05:34:29;;;;;;;10.32;9.45;;;;;;;18.78;97.75;100937.75;5028038;28;20302;-45
2022/06/25 05:36:55;;;;;;;10.57;9.48;;;;;;;18.87;98.41;100926.22;5008888;28;20204;-45
2022/06/25 05:39:21;;;;;;;9.50;8.50;;;;;;;19.10;98.66;100933.59;5009463;28;20180;-46
2022/06/25 05:41:47;;;;;;;10.57;9.45;;;;;;;19.22;97.86;100940.00;5008482;28;20590;-44
2022/06/25 05:44:13;;;;;;;13.35;8.88;;;;;;;19.30;96.35;100945.72;5009537;28;20646;-46
2022/06/25 05:46:38;;;;;;;11.10;10.00;;;;;;;19.31;96.69;100944.75;5010083;28;20207;-45
2022/06/25 05:49:03;;;;;;;14.40;10.65;;;;;;;19.03;97.75;100950.47;5008374;28;20209;-44
2022/06/25 05:51:29;;;;;;;11.27;9.85;;;;;;;19.19;98.11;100945.66;5009574;28;20177;-44
2022/06/25 05:53:54;;;;;;;10.23;9.20;;;;;;;19.32;96.67;100953.78;5007605;28;20538;-45
2022/06/25 05:56:20;;;;;;;15.10;13.20;;;;;;;19.07;96.96;100955.56;5009131;28;20200;-46
2022/06/25 05:58:45;;;;;;;16.42;12.30;;;;;;;18.97;98.43;100956.31;5009704;28;20250;-45
2022/06/25 06:01:11;;;;;;;12.57;11.30;;;;;;;19.12;99.63;100966.94;5008073;28;20429;-45
2022/06/25 06:03:36;;;;;;;12.88;11.65;;;;;;;19.22;98.22;100961.75;5009146;28;20180;-43
2022/06/25 06:06:02;;;;;;;13.35;12.02;;;;;;;19.43;96.96;100958.44;5011506;28;20295;-45
2022/06/25 06:08:27;;;;;;;11.50;10.40;;;;;;;19.68;96.55;100960.22;5009268;28;20561;-44
2022/06/25 06:10:53;;;;;;;11.15;10.00;;;;;;;19.91;94.89;100967.53;5009924;28;20169;-45
2022/06/25 06:13:18;;;;;;;10.27;9.13;;;;;;;20.09;93.73;100973.41;5008975;28;20164;-46
2022/06/25 06:15:43;;;;;;;8.75;7.45;;;;;;;20.22;90.63;100975.22;5009400;28;20235;-46
2022/06/25 06:18:09;;;;;;;9.95;8.90;;;;;;;20.41;89.96;100980.13;5009770;28;20204;-46
2022/06/25 06:20:34;;;;;;;15.00;13.10;;;;;;;20.17;92.30;100975.56;5009476;28;20251;-43
2022/06/25 06:23:01;;;;;;;17.15;15.32;;;;;;;20.00;92.61;100986.84;5009471;28;20180;-46
2022/06/25 06:25:27;;;;;;;21.95;16.88;;;;;;;19.52;93.64;100984.91;5009742;28;20192;-47
2022/06/25 06:27:53;;;;;;;19.38;17.40;;;;;;;19.37;95.82;100997.75;5009332;28;20303;-45
2022/06/25 06:30:18;;;;;;;23.55;16.70;;;;;;;19.31;96.20;101001.81;5009685;28;20180;-46
2022/06/25 06:32:44;;;;;;;17.25;15.68;;;;;;;19.52;96.22;100995.78;5009652;28;20711;-43
2022/06/25 06:35:09;;;;;;;16.25;14.50;;;;;;;19.91;94.02;100999.28;5009171;28;20223;-47
2022/06/25 06:37:35;;;;;;;16.25;14.57;;;;;;;19.80;93.61;101004.66;5011483;28;20192;-46
2022/06/25 06:40:01;;;;;;;15.57;14.00;;;;;;;19.62;93.86;101002.28;5013054;28;20211;-44
2022/06/25 06:42:26;;;;;;;20.90;17.10;;;;;;;19.42;94.78;101014.63;5013243;28;20157;-45
2022/06/25 06:44:53;;;;;;;17.77;15.88;;;;;;;19.25;95.06;101010.41;5012611;28;20820;-44
2022/06/25 06:47:19;;;;;;;18.25;16.48;;;;;;;19.16;95.09;101008.34;5013376;28;20290;-45
2022/06/25 06:49:44;;;;;;;17.45;15.63;;;;;;;19.35;94.40;101014.19;4993438;28;20196;-45
2022/06/25 06:52:10;;;;;;;17.33;14.07;;;;;;;19.54;93.46;101016.44;4993352;28;20536;-44
2022/06/25 06:54:36;;;;;;;15.15;13.55;;;;;;;19.83;92.08;101010.75;4993421;28;20277;-45
2022/06/25 06:57:02;;;;;;;14.35;12.88;;;;;;;20.02;91.69;101015.66;4993168;28;20280;-45
2022/06/25 06:59:27;;;;;;;13.95;12.57;;;;;;;20.30;90.75;101014.44;4993625;28;20204;-44
2022/06/25 07:01:52;;;;;;;13.45;12.05;;;;;;;20.42;89.50;101022.66;4993249;28;20161;-45
2022/06/25 07:04:18;;;;;;;12.05;10.85;;;;;;;20.35;87.87;101034.00;4993119;28;20217;-44
2022/06/25 07:06:43;;;;;;;12.48;11.18;;;;;;;20.18;87.87;101028.97;4993393;28;20302;-45
2022/06/25 07:09:09;;;;;;;10.73;9.73;;;;;;;20.49;86.55;101024.81;4991507;28;20660;-44
2022/06/25 07:11:36;;;;;;;9.77;8.88;;;;;;;21.26;84.75;101026.97;4993005;28;20177;-44
2022/06/25 07:14:06;;;;;;;7.28;6.68;;;;;;;22.19;80.95;101029.38;4992908;28;20559;-45
2022/06/25 07:16:33;;;;;;;6.68;4.88;;;;;;;22.76;77.58;101016.38;4993010;28;20193;-45
2022/06/25 07:19:00;;;;;;;3.55;2.80;;;;;;;22.17;73.09;101022.28;4993193;28;20252;-46
2022/06/25 07:21:26;;;;;;;7.53;6.82;;;;;;;21.63;76.50;101031.34;5007831;28;20172;-45
2022/06/25 07:23:52;;;;;;;9.98;6.45;;;;;;;21.17;80.63;101034.03;4992478;28;20391;-46
2022/06/25 07:26:20;;;;;;;9.82;7.55;;;;;;;21.27;82.51;101036.88;4999467;28;20226;-45
2022/06/25 07:28:46;;;;;;;8.35;6.95;;;;;;;21.69;82.25;101045.34;5010855;28;20192;-46
2022/06/25 07:31:11;;;;;;;8.68;6.63;;;;;;;21.77;81.28;101033.81;5012708;28;20179;-47
2022/06/25 07:33:37;;;;;;;8.35;6.82;;;;;;;20.76;82.55;101042.75;5011871;28;20160;-45
2022/06/25 07:36:02;;;;;;;10.02;8.52;;;;;;;20.63;84.47;101044.69;5011915;28;20209;-46
2022/06/25 07:38:28;;;;;;;8.60;7.38;;;;;;;20.66;83.66;101050.78;5012132;28;20184;-44
2022/06/25 07:40:54;;;;;;;6.35;5.85;;;;;;;20.80;82.24;101054.28;5012317;28;20525;-45
2022/06/25 07:43:20;;;;;;;7.78;7.07;;;;;;;20.96;82.13;101054.78;5011867;28;20535;-46
2022/06/25 07:45:45;;;;;;;12.38;9.95;;;;;;;20.60;83.45;101064.84;5011807;28;20232;-46
2022/06/25 07:48:11;;;;;;;13.85;9.27;;;;;;;20.71;83.99;101064.88;5009589;28;20208;-46
2022/06/25 07:53:20;;;;;;;10.43;9.27;;;;;;;20.49;84.55;101062.91;5011691;28;20184;-45
2022/06/25 07:55:46;;;;;;;11.35;9.68;;;;;;;20.55;85.01;101061.56;5012036;28;20202;-45
2022/06/25 07:58:12;;;;;;;9.50;8.70;;;;;;;20.50;85.71;101061.06;5011728;28;20180;-44
2022/06/25 08:00:38;;;;;;;8.88;7.88;;;;;;;20.36;86.42;101057.53;5012302;28;20189;-46
2022/06/25 08:03:04;;;;;;;7.85;6.95;;;;;;;20.31;86.17;101069.72;5011996;28;20176;-44
2022/06/25 08:05:29;;;;;;;7.10;6.50;;;;;;;20.05;85.59;101078.03;5010445;28;20194;-47
2022/06/25 08:07:55;;;;;;;7.80;6.05;;;;;;;20.24;84.06;101071.19;5010521;28;20621;-45
2022/06/25 08:10:21;;;;;;;7.75;6.43;;;;;;;20.51;83.62;101060.06;5011809;28;20172;-45
2022/06/25 08:12:47;;;;;;;6.32;5.70;;;;;;;20.38;83.08;101068.31;5011845;28;20172;-46
2022/06/25 08:15:13;;;;;;;6.25;5.70;;;;;;;20.55;82.12;101065.19;5010635;28;20245;-45
2022/06/25 08:17:39;;;;;;;5.93;5.30;;;;;;;20.38;82.50;101071.03;5011871;28;20671;-45
2022/06/25 08:20:04;;;;;;;5.28;4.53;;;;;;;20.48;82.67;101063.88;5012071;28;20252;-45
2022/06/25 08:22:30;;;;;;;3.92;3.60;;;;;;;20.99;81.73;101081.81;5010917;28;20196;-45
2022/06/25 08:24:58;;;;;;;5.70;3.97;;;;;;;20.99;80.12;101082.69;5011084;28;20245;-44
2022/06/25 08:27:24;;;;;;;4.10;3.67;;;;;;;21.25;78.99;101079.72;5011700;28;20687;-45
2022/06/25 08:29:50;;;;;;;4.57;3.55;;;;;;;21.54;77.61;101074.72;5011617;28;20164;-45
2022/06/25 08:32:15;;;;;;;3.92;3.50;;;;;;;21.87;76.99;101072.97;5011836;28;20188;-45
2022/06/25 08:34:41;;;;;;;3.88;3.10;;;;;;;21.87;75.71;101067.53;5011700;28;20204;-45
2022/06/25 08:37:06;;;;;;;4.47;4.07;;;;;;;21.87;76.36;101072.13;5011338;28;20188;-44
2022/06/25 08:39:32;;;;;;;5.15;3.80;;;;;;;22.01;75.94;101071.84;5012005;28;20636;-45
2022/06/25 08:42:01;;;;;;;4.72;3.80;;;;;;;22.21;76.74;101064.72;5011750;28;20247;-44
2022/06/25 08:44:28;;;;;;;7.03;5.45;;;;;;;22.14;77.27;101072.53;5011567;28;20167;-44
2022/06/25 08:46:55;;;;;;;7.65;6.88;;;;;;;21.61;79.14;101069.66;5011920;28;20702;-45
2022/06/25 08:49:22;;;;;;;8.27;7.28;;;;;;;21.27;80.53;101061.41;5010991;28;20212;-47
2022/06/25 08:51:48;;;;;;;12.00;8.50;;;;;;;21.04;83.81;101073.28;5026527;28;20647;-48
2022/06/25 08:54:15;;;;;;;8.10;7.20;;;;;;;21.10;83.68;101068.22;5010848;28;20183;-49
2022/06/25 08:56:41;;;;;;;9.98;5.45;;;;;;;21.86;80.79;101063.03;5008296;28;20211;-49
2022/06/25 08:59:07;;;;;;;5.50;4.88;;;;;;;22.61;79.00;101064.13;5010599;28;20612;-49
2022/06/25 09:01:33;;;;;;;6.40;5.10;;;;;;;22.18;77.49;101064.97;5009631;28;20164;-46
2022/06/25 09:03:59;;;;;;;6.43;4.80;;;;;;;22.53;77.83;101059.31;5008166;28;20170;-47
2022/06/25 09:06:24;;;;;;;7.18;6.47;;;;;;;22.68;75.60;101061.75;5010615;28;20232;-47
2022/06/25 09:09:13;;;;;;;9.43;6.95;;;;;;;22.41;76.24;101069.41;5009422;28;20216;-48
2022/06/25 09:11:48;;;;;;;10.60;7.90;;;;;;;22.01;77.98;101069.97;5010800;28;20185;-47
2022/06/25 09:14:28;;;;;;;9.00;7.38;;;;;;;22.71;78.83;101064.19;5010075;28;20168;-47
2022/06/25 09:17:06;;;;;;;9.13;6.90;;;;;;;23.55;75.67;101066.88;5010797;28;20290;-48
2022/06/25 09:19:36;;;;;;;6.93;5.60;;;;;;;23.67;73.99;101052.13;5010437;28;20520;-48
2022/06/25 09:22:14;;;;;;;7.57;5.40;;;;;;;23.18;74.49;101056.50;5009364;28;20648;-47
2022/06/25 09:24:44;;;;;;;8.15;7.15;;;;;;;23.18;75.76;101059.25;5010140;28;20263;-47
2022/06/25 09:27:10;;;;;;;8.18;5.93;;;;;;;23.32;75.15;101058.00;5009536;28;20203;-48
2022/06/25 09:29:42;;;;;;;11.88;6.78;;;;;;;23.09;75.95;101060.03;5010466;28;20196;-47
2022/06/25 09:32:08;;;;;;;5.90;4.40;;;;;;;23.94;72.59;101062.50;5009998;28;20255;-48
2022/06/25 09:34:36;;;;;;;6.78;5.30;;;;;;;24.09;71.68;101062.06;5008526;28;20259;-47
2022/06/25 09:37:16;;;;;;;11.38;5.13;;;;;;;23.58;71.28;101062.03;5010280;28;20200;-45
2022/06/25 09:39:43;;;;;;;10.98;5.82;;;;;;;23.07;73.47;101062.91;5010598;28;20183;-47
2022/06/25 09:42:22;;;;;;;8.55;5.57;;;;;;;23.12;74.86;101070.72;5010595;28;20187;-45
2022/06/25 09:44:57;;;;;;;6.57;5.88;;;;;;;22.90;73.45;101064.34;5008441;28;20187;-46
2022/06/25 09:47:23;;;;;;;7.40;6.68;;;;;;;22.74;76.54;101066.66;5009686;28;20242;-47
2022/06/25 09:49:49;;;;;;;9.40;8.43;;;;;;;22.67;76.63;101065.44;5007275;28;20219;-48
2022/06/25 09:52:14;;;;;;;10.70;7.00;;;;;;;22.73;76.04;101067.66;5008893;28;20211;-45
2022/06/25 09:54:40;;;;;;;6.35;5.75;;;;;;;22.90;75.30;101072.53;5009200;28;20164;-47
2022/06/25 09:57:06;;;;;;;7.53;5.72;;;;;;;22.86;74.48;101071.06;5010027;28;20240;-46
2022/06/25 09:59:33;;;;;;;6.43;4.78;;;;;;;22.74;74.12;101070.28;5009976;28;20197;-46
2022/06/25 10:02:02;;;;;;;11.57;5.38;;;;;;;23.10;74.20;101059.03;5009844;28;20587;-45
2022/06/25 10:04:30;;;;;;;8.98;6.18;;;;;;;23.04;74.45;101065.91;5007971;28;20718;-46
2022/06/25 10:06:57;;;;;;;8.05;5.70;;;;;;;23.18;74.88;101062.84;5009666;28;20569;-47
2022/06/25 10:09:25;;;;;;;7.13;5.05;;;;;;;23.14;73.42;101066.84;5009884;28;20682;-45
2022/06/25 10:11:52;;;;;;;6.63;5.72;;;;;;;22.54;75.19;101068.34;5010704;28;20175;-47
2022/06/25 10:14:17;;;;;;;7.80;5.90;;;;;;;22.56;75.17;101080.88;5013889;28;20164;-46
2022/06/25 10:16:44;;;;;;;6.55;5.65;;;;;;;22.90;75.02;101066.22;5014025;28;20223;-46
2022/06/25 10:19:15;;;;;;;8.05;5.30;;;;;;;23.01;74.43;101077.09;5012962;28;20184;-47
2022/06/25 10:21:42;;;;;;;7.93;5.80;;;;;;;22.98;74.94;101067.28;5013540;28;20500;-46
2022/06/25 10:24:08;;;;;;;6.30;5.53;;;;;;;22.72;74.43;101069.53;5013132;28;20180;-45
2022/06/25 10:26:35;;;;;;;6.00;5.28;;;;;;;23.02;75.16;101065.16;5013765;28;20401;-47
2022/06/25 10:29:02;;;;;;;6.07;5.15;;;;;;;23.11;73.92;101063.50;4996249;28;20207;-46
2022/06/25 10:31:28;;;;;;;6.60;5.00;;;;;;;23.25;73.82;101060.44;5013429;28;20211;-46
2022/06/25 10:34:00;;;;;;;9.02;4.60;;;;;;;23.25;72.76;101063.16;5013520;28;20215;-46
2022/06/25 10:36:44;;;;;;;4.05;3.50;;;;;;;23.21;71.38;101062.56;5013253;28;20200;-45
2022/06/25 10:39:27;;;;;;;6.47;5.20;;;;;;;23.12;71.24;101048.84;5013604;28;20171;-45
2022/06/25 10:45:15;;;;;;;7.55;3.10;;;;;;;23.41;70.60;101066.25;5013075;28;20199;-46
2022/06/25 10:47:46;;;;;;;5.05;3.08;;;;;;;23.58;69.69;101059.28;4991646;28;20243;-46
2022/06/25 10:50:21;;;;;;;3.70;3.13;;;;;;;23.54;69.36;101057.81;5013658;28;20242;-47
2022/06/25 10:53:01;;;;;;;3.53;3.17;;;;;;;23.79;68.56;101051.06;5013256;28;20180;-46
2022/06/25 10:55:34;;;;;;;3.88;2.85;;;;;;;23.95;68.23;101053.25;5013029;28;20160;-46
2022/06/25 10:58:22;;;;;;;3.58;3.17;;;;;;;23.90;66.64;101054.66;5013432;28;20778;-47
2022/06/25 11:01:00;;;;;;;8.40;5.68;;;;;;;23.38;68.80;101049.28;5012875;28;20172;-46
2022/06/25 11:03:29;;;;;;;7.10;6.47;;;;;;;23.44;68.80;101055.06;5012804;28;20172;-46
2022/06/25 11:05:57;;;;;;;6.63;5.80;;;;;;;23.26;70.14;101056.66;5013010;28;20192;-46
2022/06/25 11:08:32;;;;;;;9.38;5.30;;;;;;;23.11;70.55;101064.38;5013010;28;20204;-47
2022/06/25 11:10:57;;;;;;;9.05;5.90;;;;;;;23.06;70.81;101057.56;5011674;28;20210;-46
2022/06/25 11:13:27;;;;;;;5.35;3.10;;;;;;;23.19;69.98;101053.63;5012227;28;20184;-46
2022/06/25 11:15:53;;;;;;;4.90;2.40;;;;;;;23.18;69.11;101057.38;5013013;28;20211;-46
2022/06/25 11:18:18;;;;;;;2.88;2.05;;;;;;;23.17;67.35;101052.88;5012727;28;20164;-48
2022/06/25 11:20:46;;;;;;;1.92;1.73;;;;;;;23.56;65.73;101064.03;5012995;28;20207;-45
2022/06/25 11:23:15;;;;;;;2.00;1.60;;;;;;;23.76;64.84;101056.78;5012421;28;20235;-45
2022/06/25 11:28:49;;;;;;;5.63;1.90;;;;;;;23.43;64.96;101050.56;5012651;28;20210;-48
2022/06/25 11:31:16;;;;;;;1.90;1.80;;;;;;;23.28;65.80;101060.13;5012573;28;20304;-46
2022/06/25 11:33:43;;;;;;;2.08;1.60;;;;;;;23.41;64.34;101052.56;5012282;28;20565;-47
2022/06/25 11:36:12;;;;;;;2.25;1.70;;;;;;;23.31;63.87;101062.63;5012350;28;20578;-47